NAI weather

Annai Airport
Annai, Upper Takutu-Upper Essequibo, Guyana

Public forecast

Using degrees Celsius for public forecast. Weather courtesy of forecast.io.

Closest aviation weather report (METAR) to Annai Airport

Report is more than 6 hours old.

Closest report is Lethem Airport, 53.2 nm (98.5 km) SW. Retrieved 2019/10/21 21:00 UTC (18 hours ago):

SYLT 212100Z 10008KT 9999 FEW028 33/23 Q//// NOSIG

Closest aviation forecast (TAF) to Annai Airport

Closest forecast is Lethem Airport, 53.2 nm (98.5 km) SW. Retrieved 2019/10/22 12:10 UTC (3 hours ago):

TAF SYLT 221110Z 2212/2223 06010KT 8000 SHRA BKN014 BKN034